Observations for Trim Market St
| Time | AQI | Temp °C | Hum % | Pres Pa | CO μg/m³ | H₂S μg/m³ | NO μg/m³ | NO₂ μg/m³ | O₃ μg/m³ | SO₂ μg/m³ | PM1 μg/m³ | PM2.5 μg/m³ | PM10 μg/m³ |
|---|---|---|---|---|---|---|---|---|---|---|---|---|---|
| Saturday 11 July 2026 | |||||||||||||
| 07:26 | 1 | 21.1 | 56 | 57,676 | 0.27 | 0 | 0.62 | 0 | 2.56 | 0 | 0.71 | 3.19 | 3.99 |
| 07:25 | 1 | 21 | 57 | 57,751 | 0.25 | 0 | 0 | 0 | 5.64 | 0 | 0.71 | 2.16 | 2.6 |
| 07:24 | 1 | 20.9 | 57 | 57,816 | 0.31 | 0 | 0.96 | 0 | 5.74 | 0 | 0 | 2.14 | 4.01 |
| 07:23 | 1 | 20.7 | 58 | 57,811 | 0.29 | 0 | 1.74 | 0 | 5.16 | 0 | 0 | 1.62 | 1.92 |
| 07:21 | 1 | 20.4 | 58 | 57,811 | 0.2 | 0 | 0 | 1.06 | 14.09 | 0 | 0.71 | 2.61 | 4.74 |
| 07:20 | 1 | 20.3 | 58 | 57,810 | 0.2 | 0 | 1.98 | 0 | 7.11 | 0 | 0 | 2.11 | 2.65 |
| 07:18 | 1 | 20.1 | 58 | 57,800 | 0.16 | 0 | 0 | 0 | 10.07 | 0 | 0.71 | 2.59 | 3.36 |
| 07:17 | 1 | 20 | 59 | 57,794 | 0.16 | 0 | 0 | 0 | 11.6 | 0 | 0.71 | 2.08 | 2.67 |
| 07:15 | 1 | 19.8 | 59 | 57,777 | 0.37 | 0 | 0 | 0 | 10.52 | 0 | 0 | 2.05 | 2.7 |
| 07:14 | 1 | 19.8 | 60 | 57,769 | 0.3 | 0 | 0.88 | 0 | 8.07 | 0 | 0.71 | 2.54 | 4.09 |
| 07:13 | 1 | 19.7 | 60 | 57,760 | 0.26 | 0 | 2.45 | 1.05 | 7.22 | 0 | 0 | 2.03 | 4.78 |
| 07:12 | 1 | 19.6 | 60 | 57,751 | 0.25 | 0 | 1.51 | 0.75 | 7.78 | 0 | 0.71 | 2.52 | 3.41 |
| 07:11 | 1 | 19.6 | 60 | 57,744 | 0.23 | 0 | 2.16 | 3.12 | 4.44 | 0 | 0 | 2.01 | 2.74 |
| 07:08 | 1 | 19.3 | 61 | 57,714 | 0.15 | 0 | 1.64 | 1.83 | 10.61 | 0 | 0 | 1.99 | 3.44 |
| 07:05 | 1 | 19 | 61 | 57,701 | 0.14 | 0 | 1.04 | 0.45 | 18.21 | 0 | 0 | 1.96 | 3.46 |
| 07:03 | 1 | 18.9 | 62 | 57,678 | 0.16 | 0 | 0 | 0 | 10.33 | 0 | 0 | 1.95 | 2.8 |
| 06:57 | 1 | 18.5 | 63 | 57,600 | 0.31 | 0 | 3.35 | 2.1 | 13.13 | 0 | 0.71 | 2.39 | 3.52 |
| 06:52 | 1 | 18.2 | 64 | 57,494 | 0.24 | 0 | 0 | 2.35 | 21.69 | 0 | 0 | 2.34 | 4.22 |
| 06:50 | 1 | 18 | 65 | 57,460 | 0.2 | 0 | 0.51 | 1.45 | 11.2 | 0 | 0 | 1.33 | 2.26 |
| 06:49 | 1 | 18 | 65 | 57,438 | 0.23 | 0 | 1.5 | 1.62 | 16.26 | 0 | 0 | 1.32 | 2.27 |